SBOSBO BGI / TBPB
Speedbird OnlineSpeedbird Online BGI / TBPB

Sir Grantley Adams International Airport
02:43 28°C

Location Bridgetown, Barbados
Latitude: 13.0746002197
Longitude: -59.4925003052
Web Airport Website | Wikipedia
Altitude 52 Meter / 169 Feet
Distance 6,791 KM / 4,220 Miles
from London.
Time Zone UTC -4 hours (America/Barbados)
Codes IATA: BGI
ICAO: TBPB
Currency £1 equals BBD 2.29
Runways
RunwayLength (m)Surface
093353Asphalt
273353Asphalt
Radio
TypeDescriptionFrequency
APPADAMS APP129.35
ARRADAMS ARR128.85
ATISATIS132.725
DEPADAMS DEP128.85
GNDADAMS GND121.9
TWRADAMS TWR118.7
Live ATC
METAR TBPB 060600Z 10016KT 9999 SCT018 28/24 Q1010 NOSIG
TAF TAF TBPB 060530Z 0606/0706 11015KT 9999 SCT018 TEMPO 0608/0612 SHRA BKN014 SCT032
Weather As Of 06 Oct 2022 02:43
Description Scattered clouds
Wind 30 km/h from East (100°)
Cloud Cover 40%
Precipitation Rain: none, Snow: none
Sunrise 05:47
Sunset 17:44
Lounges Airlines Executive Lounge , International terminal
IAM Jet Centre , Separate from main terminal - please see notes below
Rotations During the last 90 days there were
83 flights from LHR
87 flights to LHR


© 2017-2022 Speedbird Online